CheckWX is a tool to help pilots better visualize weather data.  It is not intended as a substitute for an official pre-flight weather briefing.

21:35:31 UTC

KMCO TAF
Orlando International Airport
Orlando, Florida, USA
KMCO 202057Z 2021/2124 02013KT P6SM SCT050 BKN080 FM210000 01007KT P6SM SCT040 BKN080 FM211500 32008KT P6SM SCT035

Mar-20@
21:00 UTC

Mar-20 @ 21:00 UTC

Mar-21@
00:00 UTC

Mar-21 @ 00:00 UTC

KMCO 202057Z 2021/2124 02013KT P6SM SCT050 BKN080
Wind
  • 020° at 13 KTS
Cloud Levels
  • Scattered at 5,000' AGL
  • Broken at 8,000' AGL

Mar-21@
00:00 UTC

Mar-21 @ 00:00 UTC

Mar-21@
15:00 UTC

Mar-21 @ 15:00 UTC

FM210000 01007KT P6SM SCT040 BKN080

From

From Standard forecast or significant change

Wind
  • 010° at 7 KTS
Cloud Levels
  • Scattered at 4,000' AGL
  • Broken at 8,000' AGL

Mar-21@
15:00 UTC

Mar-21 @ 15:00 UTC

Mar-22@
00:00 UTC

Mar-22 @ 00:00 UTC

FM211500 32008KT P6SM SCT035

From

From Standard forecast or significant change

Wind
  • 320° at 8 KTS
Cloud Levels
  • Scattered at 3,500' AGL